Monte — V2FS2 — position and weather

sailwx.info

Track history (hours):
 
Tides and Currents Weather Stations Pressure Air Temp Water Temp Dewpoint Dewpoint Depression Visibility Wind Speed Wind Dir Waves Ship Positions

Monte

Last reported at 2016-Apr-30 22:24 UTC. Time now 2016-Apr-30 22:36 UTC.
Position N 53°54' E 004°60'.

Length 104 m; draft 6.4 m.

Type: Cargo ship. MMSI: 305777000.

Date/timePositionNaut miles runAvg speedWind from/ knotsBaromVisibWave heightAir tempDewpointWater temp
2016-Apr-30 22:24N 53°54' E 004°60'61 8.9
2016-Apr-30 15:33N 52°57' E 004°20'19 8.2
2016-Apr-30 13:12N 52°41' E 004°03'9110.4
2016-Apr-30 04:23N 51°34' E 002°22'910.7
2016-Apr-30 03:31N 51°27' E 002°12'14 9.8
2016-Apr-30 02:04N 51°14' E 002°04'5 9.4
2016-Apr-30 01:33N 51°11' E 001°57'9 9.1
2016-Apr-30 00:33N 51°06' E 001°46'12 8.9
2016-Apr-29 23:09N 50°56' E 001°33'71 9.3
2016-Apr-29 15:33N 50°17' E 000°00'1110.9
2016-Apr-29 14:33N 50°14' W 000°16'  
2016-Apr-26 10:23N 41°05' W 009°48'87 9.8
2016-Apr-26 01:31N 39°38' W 009°49'29 9.6
2016-Apr-25 22:31N 39°09' W 009°50'18 9.2
2016-Apr-25 20:31N 38°51' W 009°50'9 9.0
2016-Apr-25 19:33N 38°42' W 009°50'9 9.0
2016-Apr-25 18:33N 38°33' W 009°48'9 9.4
2016-Apr-25 17:33N 38°24' W 009°45'9 9.1
2016-Apr-25 16:33N 38°15' W 009°42'8 8.3
2016-Apr-25 15:33N 38°07' W 009°40'8 8.5
2016-Apr-25 14:33N 37°59' W 009°37'9 9.0
2016-Apr-25 13:33N 37°50' W 009°35'10 9.6
2016-Apr-25 12:33N 37°41' W 009°32'10 9.8
2016-Apr-25 11:32N 37°31' W 009°29'14 9.8
2016-Apr-25 10:06N 37°17' W 009°25'5 9.9
2016-Apr-25 09:33N 37°12' W 009°24'196 9.3
2016-Apr-24 12:25N 35°58' W 005°37'7 8.4
2016-Apr-24 11:33N 35°60' W 005°29'  
2016-Apr-21 22:33N 35°58' W 005°14'  
Track history (hours):
 
Tides and Currents Weather Stations Pressure Air Temp Water Temp Dewpoint Dewpoint Depression Visibility Wind Speed Wind Dir Waves Ship Positions

Monte

Last reported at 2016-Apr-30 22:24 UTC. Time now 2016-Apr-30 22:36 UTC.
Position N 53°54' E 004°60'.

Length 104 m; draft 6.4 m.

Type: Cargo ship. MMSI: 305777000.

Date/timePositionNaut miles runAvg speedWind from/ knotsBaromVisibWave heightAir tempDewpointWater temp
2016-Apr-30 22:24N 53°54' E 004°60'61 8.9
2016-Apr-30 15:33N 52°57' E 004°20'19 8.2
2016-Apr-30 13:12N 52°41' E 004°03'9110.4
2016-Apr-30 04:23N 51°34' E 002°22'910.7
2016-Apr-30 03:31N 51°27' E 002°12'14 9.8
2016-Apr-30 02:04N 51°14' E 002°04'5 9.4
2016-Apr-30 01:33N 51°11' E 001°57'9 9.1
2016-Apr-30 00:33N 51°06' E 001°46'12 8.9
2016-Apr-29 23:09N 50°56' E 001°33'71 9.3
2016-Apr-29 15:33N 50°17' E 000°00'1110.9
2016-Apr-29 14:33N 50°14' W 000°16'  
2016-Apr-26 10:23N 41°05' W 009°48'87 9.8
2016-Apr-26 01:31N 39°38' W 009°49'29 9.6
2016-Apr-25 22:31N 39°09' W 009°50'18 9.2
2016-Apr-25 20:31N 38°51' W 009°50'9 9.0
2016-Apr-25 19:33N 38°42' W 009°50'9 9.0
2016-Apr-25 18:33N 38°33' W 009°48'9 9.4
2016-Apr-25 17:33N 38°24' W 009°45'9 9.1
2016-Apr-25 16:33N 38°15' W 009°42'8 8.3
2016-Apr-25 15:33N 38°07' W 009°40'8 8.5
2016-Apr-25 14:33N 37°59' W 009°37'9 9.0
2016-Apr-25 13:33N 37°50' W 009°35'10 9.6
2016-Apr-25 12:33N 37°41' W 009°32'10 9.8
2016-Apr-25 11:32N 37°31' W 009°29'14 9.8
2016-Apr-25 10:06N 37°17' W 009°25'5 9.9
2016-Apr-25 09:33N 37°12' W 009°24'196 9.3
2016-Apr-24 12:25N 35°58' W 005°37'7 8.4
2016-Apr-24 11:33N 35°60' W 005°29'  
2016-Apr-21 22:33N 35°58' W 005°14'  

Dump ship's entire track history